sensor_id;sensor_type;location;lat;lon;timestamp;P1;durP1;ratioP1;P2;durP2;ratioP2
9076;SDS011;4574;51.072;17.174;2023-03-01T00:01:58;84.83;;;42.53;;
9076;SDS011;4574;51.072;17.174;2023-03-01T00:04:27;85.87;;;42.33;;
9076;SDS011;4574;51.072;17.174;2023-03-01T00:06:55;79.63;;;41.23;;
9076;SDS011;4574;51.072;17.174;2023-03-01T00:09:24;77.77;;;41.40;;
9076;SDS011;4574;51.072;17.174;2023-03-01T00:11:54;92.07;;;44.27;;
9076;SDS011;4574;51.072;17.174;2023-03-01T00:14:23;79.57;;;42.23;;
9076;SDS011;4574;51.072;17.174;2023-03-01T00:16:52;85.13;;;42.47;;
9076;SDS011;4574;51.072;17.174;2023-03-01T00:19:20;87.30;;;43.87;;
9076;SDS011;4574;51.072;17.174;2023-03-01T00:21:49;82.53;;;41.83;;
9076;SDS011;4574;51.072;17.174;2023-03-01T00:24:18;84.63;;;42.97;;
9076;SDS011;4574;51.072;17.174;2023-03-01T00:26:46;88.47;;;41.93;;
9076;SDS011;4574;51.072;17.174;2023-03-01T00:29:16;83.03;;;42.03;;
9076;SDS011;4574;51.072;17.174;2023-03-01T00:31:45;90.80;;;45.43;;
9076;SDS011;4574;51.072;17.174;2023-03-01T00:34:13;87.20;;;44.43;;
9076;SDS011;4574;51.072;17.174;2023-03-01T00:36:42;90.03;;;44.97;;
9076;SDS011;4574;51.072;17.174;2023-03-01T00:39:12;97.77;;;47.63;;
9076;SDS011;4574;51.072;17.174;2023-03-01T00:41:42;93.33;;;48.37;;
9076;SDS011;4574;51.072;17.174;2023-03-01T00:44:11;94.57;;;45.87;;
9076;SDS011;4574;51.072;17.174;2023-03-01T00:46:41;98.83;;;46.13;;
9076;SDS011;4574;51.072;17.174;2023-03-01T00:49:12;92.47;;;44.33;;
9076;SDS011;4574;51.072;17.174;2023-03-01T00:51:41;87.30;;;44.20;;
9076;SDS011;4574;51.072;17.174;2023-03-01T00:54:10;92.17;;;45.20;;
9076;SDS011;4574;51.072;17.174;2023-03-01T00:56:38;96.93;;;46.47;;
9076;SDS011;4574;51.072;17.174;2023-03-01T00:59:07;94.77;;;48.03;;
9076;SDS011;4574;51.072;17.174;2023-03-01T01:01:35;92.07;;;46.77;;
9076;SDS011;4574;51.072;17.174;2023-03-01T01:04:06;98.40;;;49.33;;
9076;SDS011;4574;51.072;17.174;2023-03-01T01:06:37;96.80;;;48.83;;
9076;SDS011;4574;51.072;17.174;2023-03-01T01:09:09;105.57;;;48.73;;
9076;SDS011;4574;51.072;17.174;2023-03-01T01:11:43;105.00;;;50.47;;
9076;SDS011;4574;51.072;17.174;2023-03-01T01:14:14;105.10;;;49.00;;
9076;SDS011;4574;51.072;17.174;2023-03-01T01:16:42;117.80;;;55.60;;
9076;SDS011;4574;51.072;17.174;2023-03-01T01:19:12;122.43;;;57.47;;
9076;SDS011;4574;51.072;17.174;2023-03-01T01:21:41;119.53;;;56.37;;
9076;SDS011;4574;51.072;17.174;2023-03-01T01:24:11;112.87;;;53.60;;
9076;SDS011;4574;51.072;17.174;2023-03-01T01:26:40;113.20;;;51.97;;
9076;SDS011;4574;51.072;17.174;2023-03-01T01:29:09;118.47;;;51.77;;
9076;SDS011;4574;51.072;17.174;2023-03-01T01:31:39;124.97;;;56.67;;
9076;SDS011;4574;51.072;17.174;2023-03-01T01:34:13;113.03;;;53.80;;
9076;SDS011;4574;51.072;17.174;2023-03-01T01:36:47;107.90;;;55.07;;
9076;SDS011;4574;51.072;17.174;2023-03-01T01:39:17;110.10;;;53.87;;
9076;SDS011;4574;51.072;17.174;2023-03-01T01:41:45;108.40;;;54.27;;
9076;SDS011;4574;51.072;17.174;2023-03-01T01:44:18;103.57;;;52.27;;
9076;SDS011;4574;51.072;17.174;2023-03-01T01:46:50;100.17;;;48.13;;
9076;SDS011;4574;51.072;17.174;2023-03-01T01:49:25;114.27;;;46.50;;
9076;SDS011;4574;51.072;17.174;2023-03-01T01:52:05;116.20;;;46.13;;
9076;SDS011;4574;51.072;17.174;2023-03-01T01:54:39;103.17;;;45.73;;
9076;SDS011;4574;51.072;17.174;2023-03-01T01:57:12;96.63;;;42.33;;
9076;SDS011;4574;51.072;17.174;2023-03-01T01:59:45;94.53;;;45.10;;
9076;SDS011;4574;51.072;17.174;2023-03-01T02:02:18;91.10;;;43.90;;
9076;SDS011;4574;51.072;17.174;2023-03-01T02:04:49;76.77;;;37.57;;
9076;SDS011;4574;51.072;17.174;2023-03-01T02:07:25;73.77;;;35.97;;
9076;SDS011;4574;51.072;17.174;2023-03-01T02:09:54;72.20;;;34.93;;
9076;SDS011;4574;51.072;17.174;2023-03-01T02:12:23;79.03;;;37.23;;
9076;SDS011;4574;51.072;17.174;2023-03-01T02:14:53;78.73;;;38.07;;
9076;SDS011;4574;51.072;17.174;2023-03-01T02:17:22;87.10;;;42.47;;
9076;SDS011;4574;51.072;17.174;2023-03-01T02:19:56;84.20;;;40.37;;
9076;SDS011;4574;51.072;17.174;2023-03-01T02:22:34;84.23;;;39.90;;
9076;SDS011;4574;51.072;17.174;2023-03-01T02:25:07;84.73;;;39.20;;
9076;SDS011;4574;51.072;17.174;2023-03-01T02:27:48;79.70;;;40.23;;
9076;SDS011;4574;51.072;17.174;2023-03-01T02:30:24;87.07;;;41.90;;
9076;SDS011;4574;51.072;17.174;2023-03-01T02:32:54;92.63;;;44.50;;
9076;SDS011;4574;51.072;17.174;2023-03-01T02:35:29;91.73;;;42.60;;
9076;SDS011;4574;51.072;17.174;2023-03-01T02:38:01;89.43;;;43.93;;
9076;SDS011;4574;51.072;17.174;2023-03-01T02:40:34;94.63;;;45.20;;
9076;SDS011;4574;51.072;17.174;2023-03-01T02:43:06;105.43;;;47.63;;
9076;SDS011;4574;51.072;17.174;2023-03-01T02:45:42;106.37;;;47.60;;
9076;SDS011;4574;51.072;17.174;2023-03-01T02:48:15;109.33;;;48.50;;
9076;SDS011;4574;51.072;17.174;2023-03-01T02:50:46;107.10;;;49.83;;
9076;SDS011;4574;51.072;17.174;2023-03-01T02:53:32;112.17;;;50.33;;
9076;SDS011;4574;51.072;17.174;2023-03-01T02:56:08;117.83;;;53.80;;
9076;SDS011;4574;51.072;17.174;2023-03-01T02:58:39;133.20;;;57.03;;
9076;SDS011;4574;51.072;17.174;2023-03-01T03:01:13;140.93;;;59.03;;
9076;SDS011;4574;51.072;17.174;2023-03-01T03:03:43;124.57;;;56.43;;
9076;SDS011;4574;51.072;17.174;2023-03-01T03:06:12;110.77;;;52.27;;
9076;SDS011;4574;51.072;17.174;2023-03-01T03:08:41;106.37;;;51.43;;
9076;SDS011;4574;51.072;17.174;2023-03-01T03:11:10;110.83;;;50.97;;
9076;SDS011;4574;51.072;17.174;2023-03-01T03:13:39;106.77;;;49.87;;
9076;SDS011;4574;51.072;17.174;2023-03-01T03:16:16;113.93;;;52.87;;
9076;SDS011;4574;51.072;17.174;2023-03-01T03:18:45;111.97;;;52.17;;
9076;SDS011;4574;51.072;17.174;2023-03-01T03:21:14;106.57;;;51.70;;
9076;SDS011;4574;51.072;17.174;2023-03-01T03:23:43;107.87;;;50.67;;
9076;SDS011;4574;51.072;17.174;2023-03-01T03:26:11;106.80;;;51.67;;
9076;SDS011;4574;51.072;17.174;2023-03-01T03:28:41;121.43;;;53.47;;
9076;SDS011;4574;51.072;17.174;2023-03-01T03:31:10;116.73;;;55.43;;
9076;SDS011;4574;51.072;17.174;2023-03-01T03:33:40;118.23;;;53.23;;
9076;SDS011;4574;51.072;17.174;2023-03-01T03:36:09;114.27;;;52.27;;
9076;SDS011;4574;51.072;17.174;2023-03-01T03:38:44;118.90;;;53.70;;
9076;SDS011;4574;51.072;17.174;2023-03-01T03:41:14;111.67;;;50.83;;
9076;SDS011;4574;51.072;17.174;2023-03-01T03:43:44;116.50;;;54.63;;
9076;SDS011;4574;51.072;17.174;2023-03-01T03:46:12;115.43;;;54.23;;
9076;SDS011;4574;51.072;17.174;2023-03-01T03:48:45;116.73;;;54.20;;
9076;SDS011;4574;51.072;17.174;2023-03-01T03:51:15;112.40;;;52.87;;
9076;SDS011;4574;51.072;17.174;2023-03-01T03:53:45;112.47;;;53.20;;
9076;SDS011;4574;51.072;17.174;2023-03-01T03:56:14;111.03;;;52.97;;
9076;SDS011;4574;51.072;17.174;2023-03-01T03:58:42;117.33;;;50.97;;
9076;SDS011;4574;51.072;17.174;2023-03-01T04:01:11;105.57;;;51.50;;
9076;SDS011;4574;51.072;17.174;2023-03-01T04:03:42;111.20;;;52.03;;
9076;SDS011;4574;51.072;17.174;2023-03-01T04:06:14;109.70;;;50.77;;
9076;SDS011;4574;51.072;17.174;2023-03-01T04:08:43;112.57;;;52.83;;
9076;SDS011;4574;51.072;17.174;2023-03-01T04:11:11;107.97;;;49.73;;
9076;SDS011;4574;51.072;17.174;2023-03-01T04:13:56;105.33;;;49.63;;
9076;SDS011;4574;51.072;17.174;2023-03-01T04:16:28;102.80;;;50.20;;
9076;SDS011;4574;51.072;17.174;2023-03-01T04:18:59;112.90;;;51.53;;
9076;SDS011;4574;51.072;17.174;2023-03-01T04:21:31;109.70;;;49.17;;
9076;SDS011;4574;51.072;17.174;2023-03-01T04:24:00;109.80;;;51.30;;
9076;SDS011;4574;51.072;17.174;2023-03-01T04:26:30;120.50;;;53.40;;
9076;SDS011;4574;51.072;17.174;2023-03-01T04:28:59;118.73;;;54.93;;
9076;SDS011;4574;51.072;17.174;2023-03-01T04:31:28;119.17;;;53.53;;
9076;SDS011;4574;51.072;17.174;2023-03-01T04:33:57;124.00;;;55.40;;
9076;SDS011;4574;51.072;17.174;2023-03-01T04:36:27;121.80;;;54.33;;
9076;SDS011;4574;51.072;17.174;2023-03-01T04:38:58;116.37;;;53.37;;
9076;SDS011;4574;51.072;17.174;2023-03-01T04:41:39;128.07;;;55.20;;
9076;SDS011;4574;51.072;17.174;2023-03-01T04:44:10;117.43;;;55.70;;
9076;SDS011;4574;51.072;17.174;2023-03-01T04:46:39;120.17;;;56.73;;
9076;SDS011;4574;51.072;17.174;2023-03-01T04:49:07;123.07;;;56.40;;
9076;SDS011;4574;51.072;17.174;2023-03-01T04:51:36;123.50;;;57.43;;
9076;SDS011;4574;51.072;17.174;2023-03-01T04:54:06;117.73;;;56.03;;
9076;SDS011;4574;51.072;17.174;2023-03-01T04:56:35;118.57;;;54.93;;
9076;SDS011;4574;51.072;17.174;2023-03-01T04:59:04;124.83;;;54.13;;
9076;SDS011;4574;51.072;17.174;2023-03-01T05:01:35;120.23;;;54.50;;
9076;SDS011;4574;51.072;17.174;2023-03-01T05:04:04;116.67;;;56.20;;
9076;SDS011;4574;51.072;17.174;2023-03-01T05:06:34;123.57;;;53.93;;
9076;SDS011;4574;51.072;17.174;2023-03-01T05:09:03;117.67;;;52.73;;
9076;SDS011;4574;51.072;17.174;2023-03-01T05:11:34;116.60;;;51.80;;
9076;SDS011;4574;51.072;17.174;2023-03-01T05:14:05;117.37;;;53.30;;
9076;SDS011;4574;51.072;17.174;2023-03-01T05:16:34;115.40;;;51.87;;
9076;SDS011;4574;51.072;17.174;2023-03-01T05:19:04;112.43;;;51.97;;
9076;SDS011;4574;51.072;17.174;2023-03-01T05:21:38;119.37;;;54.40;;
9076;SDS011;4574;51.072;17.174;2023-03-01T05:24:28;115.77;;;51.50;;
9076;SDS011;4574;51.072;17.174;2023-03-01T05:26:59;113.17;;;53.33;;
9076;SDS011;4574;51.072;17.174;2023-03-01T05:29:30;112.57;;;53.60;;
9076;SDS011;4574;51.072;17.174;2023-03-01T05:32:02;112.90;;;52.43;;
9076;SDS011;4574;51.072;17.174;2023-03-01T05:34:33;117.97;;;54.53;;
9076;SDS011;4574;51.072;17.174;2023-03-01T05:37:03;112.60;;;52.80;;
9076;SDS011;4574;51.072;17.174;2023-03-01T05:39:34;115.77;;;53.77;;
9076;SDS011;4574;51.072;17.174;2023-03-01T05:42:04;121.43;;;51.97;;
9076;SDS011;4574;51.072;17.174;2023-03-01T05:44:35;118.23;;;54.13;;
9076;SDS011;4574;51.072;17.174;2023-03-01T05:47:04;110.50;;;51.87;;
9076;SDS011;4574;51.072;17.174;2023-03-01T05:49:32;183.13;;;71.37;;
9076;SDS011;4574;51.072;17.174;2023-03-01T05:52:04;149.70;;;64.40;;
9076;SDS011;4574;51.072;17.174;2023-03-01T05:54:33;154.00;;;64.37;;
9076;SDS011;4574;51.072;17.174;2023-03-01T05:57:01;161.80;;;65.47;;
9076;SDS011;4574;51.072;17.174;2023-03-01T05:59:31;199.63;;;75.00;;
9076;SDS011;4574;51.072;17.174;2023-03-01T06:02:00;178.10;;;69.77;;
9076;SDS011;4574;51.072;17.174;2023-03-01T06:04:30;153.97;;;61.10;;
9076;SDS011;4574;51.072;17.174;2023-03-01T06:06:59;135.47;;;58.03;;
9076;SDS011;4574;51.072;17.174;2023-03-01T06:09:28;145.53;;;59.53;;
9076;SDS011;4574;51.072;17.174;2023-03-01T06:11:56;144.07;;;61.60;;
9076;SDS011;4574;51.072;17.174;2023-03-01T06:14:25;131.60;;;56.97;;
9076;SDS011;4574;51.072;17.174;2023-03-01T06:16:55;130.27;;;58.07;;
9076;SDS011;4574;51.072;17.174;2023-03-01T06:19:25;129.33;;;59.50;;
9076;SDS011;4574;51.072;17.174;2023-03-01T06:21:53;134.93;;;58.63;;
9076;SDS011;4574;51.072;17.174;2023-03-01T06:24:22;127.60;;;56.87;;
9076;SDS011;4574;51.072;17.174;2023-03-01T06:26:52;125.93;;;58.07;;
9076;SDS011;4574;51.072;17.174;2023-03-01T06:29:21;127.83;;;60.47;;
9076;SDS011;4574;51.072;17.174;2023-03-01T06:31:50;145.50;;;62.43;;
9076;SDS011;4574;51.072;17.174;2023-03-01T06:34:20;156.00;;;64.03;;
9076;SDS011;4574;51.072;17.174;2023-03-01T06:36:49;160.67;;;65.83;;
9076;SDS011;4574;51.072;17.174;2023-03-01T06:39:18;156.13;;;65.03;;
9076;SDS011;4574;51.072;17.174;2023-03-01T06:41:46;161.00;;;65.97;;
9076;SDS011;4574;51.072;17.174;2023-03-01T06:44:15;148.83;;;66.33;;
9076;SDS011;4574;51.072;17.174;2023-03-01T06:46:44;158.93;;;67.70;;
9076;SDS011;4574;51.072;17.174;2023-03-01T06:49:13;103.60;;;51.37;;
9076;SDS011;4574;51.072;17.174;2023-03-01T06:51:44;104.33;;;48.90;;
9076;SDS011;4574;51.072;17.174;2023-03-01T06:54:15;114.57;;;53.63;;
9076;SDS011;4574;51.072;17.174;2023-03-01T06:56:46;110.17;;;57.67;;
9076;SDS011;4574;51.072;17.174;2023-03-01T06:59:15;121.10;;;57.60;;
9076;SDS011;4574;51.072;17.174;2023-03-01T07:01:45;119.77;;;58.00;;
9076;SDS011;4574;51.072;17.174;2023-03-01T07:04:14;118.87;;;58.53;;
9076;SDS011;4574;51.072;17.174;2023-03-01T07:06:42;115.73;;;52.87;;
9076;SDS011;4574;51.072;17.174;2023-03-01T07:09:12;108.60;;;53.53;;
9076;SDS011;4574;51.072;17.174;2023-03-01T07:11:41;100.60;;;51.00;;
9076;SDS011;4574;51.072;17.174;2023-03-01T07:14:10;101.73;;;48.50;;
9076;SDS011;4574;51.072;17.174;2023-03-01T07:16:38;107.37;;;53.80;;
9076;SDS011;4574;51.072;17.174;2023-03-01T07:19:06;117.13;;;56.53;;
9076;SDS011;4574;51.072;17.174;2023-03-01T07:21:35;119.93;;;55.97;;
9076;SDS011;4574;51.072;17.174;2023-03-01T07:24:05;119.63;;;58.40;;
9076;SDS011;4574;51.072;17.174;2023-03-01T07:26:36;120.50;;;57.27;;
9076;SDS011;4574;51.072;17.174;2023-03-01T07:29:05;105.40;;;51.70;;
9076;SDS011;4574;51.072;17.174;2023-03-01T07:31:35;95.23;;;48.03;;
9076;SDS011;4574;51.072;17.174;2023-03-01T07:34:03;98.20;;;51.63;;
9076;SDS011;4574;51.072;17.174;2023-03-01T07:36:32;105.60;;;53.40;;
9076;SDS011;4574;51.072;17.174;2023-03-01T07:39:01;118.17;;;57.17;;
9076;SDS011;4574;51.072;17.174;2023-03-01T07:41:30;99.57;;;50.40;;
9076;SDS011;4574;51.072;17.174;2023-03-01T07:44:00;98.27;;;49.53;;
9076;SDS011;4574;51.072;17.174;2023-03-01T07:46:28;97.17;;;47.37;;
9076;SDS011;4574;51.072;17.174;2023-03-01T07:48:57;96.53;;;47.63;;
9076;SDS011;4574;51.072;17.174;2023-03-01T07:51:26;89.40;;;45.23;;
9076;SDS011;4574;51.072;17.174;2023-03-01T07:53:54;89.07;;;43.67;;
9076;SDS011;4574;51.072;17.174;2023-03-01T07:56:23;74.87;;;38.60;;
9076;SDS011;4574;51.072;17.174;2023-03-01T07:58:52;77.97;;;40.87;;
9076;SDS011;4574;51.072;17.174;2023-03-01T08:01:22;67.80;;;36.00;;
9076;SDS011;4574;51.072;17.174;2023-03-01T08:03:51;59.03;;;32.83;;
9076;SDS011;4574;51.072;17.174;2023-03-01T08:06:22;55.77;;;29.27;;
9076;SDS011;4574;51.072;17.174;2023-03-01T08:08:51;53.37;;;29.20;;
9076;SDS011;4574;51.072;17.174;2023-03-01T08:11:21;48.97;;;26.67;;
9076;SDS011;4574;51.072;17.174;2023-03-01T08:13:50;46.93;;;26.90;;
9076;SDS011;4574;51.072;17.174;2023-03-01T08:16:19;45.17;;;25.77;;
9076;SDS011;4574;51.072;17.174;2023-03-01T08:18:50;46.93;;;27.10;;
9076;SDS011;4574;51.072;17.174;2023-03-01T08:21:20;46.40;;;26.30;;
9076;SDS011;4574;51.072;17.174;2023-03-01T08:23:49;57.90;;;26.43;;
9076;SDS011;4574;51.072;17.174;2023-03-01T08:26:18;48.40;;;26.30;;
9076;SDS011;4574;51.072;17.174;2023-03-01T08:28:49;47.13;;;24.80;;
9076;SDS011;4574;51.072;17.174;2023-03-01T08:31:18;45.07;;;24.80;;
9076;SDS011;4574;51.072;17.174;2023-03-01T08:33:52;45.60;;;26.20;;
9076;SDS011;4574;51.072;17.174;2023-03-01T08:36:23;46.97;;;24.67;;
9076;SDS011;4574;51.072;17.174;2023-03-01T08:38:52;43.77;;;24.33;;
9076;SDS011;4574;51.072;17.174;2023-03-01T08:41:21;43.97;;;24.70;;
9076;SDS011;4574;51.072;17.174;2023-03-01T08:43:50;48.33;;;24.00;;
9076;SDS011;4574;51.072;17.174;2023-03-01T08:46:25;42.93;;;23.67;;
9076;SDS011;4574;51.072;17.174;2023-03-01T08:48:57;39.50;;;23.17;;
9076;SDS011;4574;51.072;17.174;2023-03-01T08:51:26;49.40;;;26.80;;
9076;SDS011;4574;51.072;17.174;2023-03-01T08:53:56;54.27;;;25.93;;
9076;SDS011;4574;51.072;17.174;2023-03-01T08:56:24;47.50;;;26.67;;
9076;SDS011;4574;51.072;17.174;2023-03-01T08:58:53;41.87;;;23.87;;
9076;SDS011;4574;51.072;17.174;2023-03-01T09:01:22;46.57;;;24.17;;
9076;SDS011;4574;51.072;17.174;2023-03-01T09:03:51;44.83;;;24.60;;
9076;SDS011;4574;51.072;17.174;2023-03-01T09:06:21;47.67;;;26.00;;
9076;SDS011;4574;51.072;17.174;2023-03-01T09:08:51;47.13;;;25.50;;
9076;SDS011;4574;51.072;17.174;2023-03-01T09:11:21;43.43;;;22.77;;
9076;SDS011;4574;51.072;17.174;2023-03-01T09:13:50;28.63;;;17.40;;
9076;SDS011;4574;51.072;17.174;2023-03-01T09:16:19;25.90;;;15.67;;
9076;SDS011;4574;51.072;17.174;2023-03-01T09:18:49;19.57;;;12.90;;
9076;SDS011;4574;51.072;17.174;2023-03-01T09:21:19;22.17;;;13.20;;
9076;SDS011;4574;51.072;17.174;2023-03-01T09:24:06;25.37;;;14.77;;
9076;SDS011;4574;51.072;17.174;2023-03-01T09:26:39;25.33;;;15.10;;
9076;SDS011;4574;51.072;17.174;2023-03-01T09:29:08;24.73;;;15.00;;
9076;SDS011;4574;51.072;17.174;2023-03-01T09:31:37;29.03;;;15.60;;
9076;SDS011;4574;51.072;17.174;2023-03-01T09:34:06;26.63;;;15.33;;
9076;SDS011;4574;51.072;17.174;2023-03-01T09:36:37;24.00;;;15.33;;
9076;SDS011;4574;51.072;17.174;2023-03-01T09:39:06;25.67;;;15.73;;
9076;SDS011;4574;51.072;17.174;2023-03-01T09:41:43;29.20;;;17.00;;
9076;SDS011;4574;51.072;17.174;2023-03-01T09:44:23;26.20;;;16.40;;
9076;SDS011;4574;51.072;17.174;2023-03-01T09:46:59;26.67;;;16.67;;
9076;SDS011;4574;51.072;17.174;2023-03-01T09:49:29;30.23;;;16.20;;
9076;SDS011;4574;51.072;17.174;2023-03-01T09:52:06;29.30;;;16.50;;
9076;SDS011;4574;51.072;17.174;2023-03-01T09:54:43;29.00;;;16.70;;
9076;SDS011;4574;51.072;17.174;2023-03-01T09:57:15;25.90;;;16.43;;
9076;SDS011;4574;51.072;17.174;2023-03-01T09:59:51;25.00;;;15.53;;
9076;SDS011;4574;51.072;17.174;2023-03-01T10:02:32;25.43;;;15.70;;
9076;SDS011;4574;51.072;17.174;2023-03-01T10:05:14;26.87;;;15.70;;
9076;SDS011;4574;51.072;17.174;2023-03-01T10:08:02;25.73;;;16.23;;
9076;SDS011;4574;51.072;17.174;2023-03-01T10:10:47;24.83;;;16.20;;
9076;SDS011;4574;51.072;17.174;2023-03-01T10:13:17;27.20;;;17.13;;
9076;SDS011;4574;51.072;17.174;2023-03-01T10:15:50;23.70;;;16.03;;
9076;SDS011;4574;51.072;17.174;2023-03-01T10:18:23;25.53;;;16.17;;
9076;SDS011;4574;51.072;17.174;2023-03-01T10:20:56;29.47;;;17.40;;
9076;SDS011;4574;51.072;17.174;2023-03-01T10:23:31;30.10;;;16.53;;
9076;SDS011;4574;51.072;17.174;2023-03-01T10:26:06;24.93;;;16.07;;
9076;SDS011;4574;51.072;17.174;2023-03-01T10:28:48;29.63;;;17.87;;
9076;SDS011;4574;51.072;17.174;2023-03-01T10:31:24;23.27;;;16.10;;
9076;SDS011;4574;51.072;17.174;2023-03-01T10:33:56;24.47;;;16.00;;
9076;SDS011;4574;51.072;17.174;2023-03-01T10:36:25;25.67;;;15.80;;
9076;SDS011;4574;51.072;17.174;2023-03-01T10:38:56;28.93;;;16.13;;
9076;SDS011;4574;51.072;17.174;2023-03-01T10:41:26;22.70;;;14.10;;
9076;SDS011;4574;51.072;17.174;2023-03-01T10:43:56;26.37;;;16.03;;
9076;SDS011;4574;51.072;17.174;2023-03-01T10:46:27;18.57;;;13.20;;
9076;SDS011;4574;51.072;17.174;2023-03-01T10:49:07;29.40;;;17.13;;
9076;SDS011;4574;51.072;17.174;2023-03-01T10:51:43;27.20;;;16.97;;
9076;SDS011;4574;51.072;17.174;2023-03-01T10:54:18;26.93;;;16.07;;
9076;SDS011;4574;51.072;17.174;2023-03-01T10:56:48;22.77;;;13.67;;
9076;SDS011;4574;51.072;17.174;2023-03-01T10:59:21;27.77;;;15.87;;
9076;SDS011;4574;51.072;17.174;2023-03-01T11:02:16;24.57;;;14.53;;
9076;SDS011;4574;51.072;17.174;2023-03-01T11:04:59;21.93;;;13.53;;
9076;SDS011;4574;51.072;17.174;2023-03-01T11:07:47;43.20;;;23.77;;
9076;SDS011;4574;51.072;17.174;2023-03-01T11:10:18;19.20;;;12.00;;
9076;SDS011;4574;51.072;17.174;2023-03-01T11:12:50;19.27;;;11.70;;
9076;SDS011;4574;51.072;17.174;2023-03-01T11:15:20;19.60;;;12.67;;
9076;SDS011;4574;51.072;17.174;2023-03-01T11:17:51;18.67;;;11.73;;
9076;SDS011;4574;51.072;17.174;2023-03-01T11:20:35;20.50;;;12.53;;
9076;SDS011;4574;51.072;17.174;2023-03-01T11:23:05;17.20;;;12.50;;
9076;SDS011;4574;51.072;17.174;2023-03-01T11:25:40;17.73;;;12.07;;
9076;SDS011;4574;51.072;17.174;2023-03-01T11:28:12;21.90;;;12.37;;
9076;SDS011;4574;51.072;17.174;2023-03-01T11:30:45;16.50;;;11.63;;
9076;SDS011;4574;51.072;17.174;2023-03-01T11:33:37;18.50;;;12.90;;
9076;SDS011;4574;51.072;17.174;2023-03-01T11:36:15;23.00;;;15.40;;
9076;SDS011;4574;51.072;17.174;2023-03-01T11:38:49;20.53;;;12.10;;
9076;SDS011;4574;51.072;17.174;2023-03-01T11:41:20;17.23;;;12.40;;
9076;SDS011;4574;51.072;17.174;2023-03-01T11:43:52;15.83;;;11.17;;
9076;SDS011;4574;51.072;17.174;2023-03-01T11:46:31;18.67;;;12.70;;
9076;SDS011;4574;51.072;17.174;2023-03-01T11:52:08;19.17;;;11.47;;
9076;SDS011;4574;51.072;17.174;2023-03-01T11:54:50;22.87;;;12.97;;
9076;SDS011;4574;51.072;17.174;2023-03-01T11:57:38;17.80;;;12.10;;
9076;SDS011;4574;51.072;17.174;2023-03-01T12:00:32;24.20;;;12.57;;
9076;SDS011;4574;51.072;17.174;2023-03-01T12:03:22;21.07;;;12.93;;
9076;SDS011;4574;51.072;17.174;2023-03-01T12:06:00;22.33;;;13.47;;
9076;SDS011;4574;51.072;17.174;2023-03-01T12:08:43;23.90;;;13.67;;
9076;SDS011;4574;51.072;17.174;2023-03-01T12:11:22;19.30;;;12.23;;
9076;SDS011;4574;51.072;17.174;2023-03-01T12:14:02;19.63;;;12.10;;
9076;SDS011;4574;51.072;17.174;2023-03-01T12:16:59;22.90;;;12.80;;
9076;SDS011;4574;51.072;17.174;2023-03-01T12:19:56;28.10;;;15.17;;
9076;SDS011;4574;51.072;17.174;2023-03-01T12:22:44;30.13;;;14.47;;
9076;SDS011;4574;51.072;17.174;2023-03-01T12:25:45;19.13;;;12.90;;
9076;SDS011;4574;51.072;17.174;2023-03-01T12:34:18;17.57;;;12.50;;
9076;SDS011;4574;51.072;17.174;2023-03-01T12:37:04;18.10;;;12.57;;
9076;SDS011;4574;51.072;17.174;2023-03-01T12:39:47;18.20;;;11.33;;
9076;SDS011;4574;51.072;17.174;2023-03-01T12:42:25;19.87;;;12.00;;
9076;SDS011;4574;51.072;17.174;2023-03-01T12:45:02;34.90;;;13.17;;
9076;SDS011;4574;51.072;17.174;2023-03-01T12:47:55;22.63;;;11.83;;
9076;SDS011;4574;51.072;17.174;2023-03-01T12:50:36;30.03;;;11.87;;
9076;SDS011;4574;51.072;17.174;2023-03-01T12:53:14;16.00;;;10.10;;
9076;SDS011;4574;51.072;17.174;2023-03-01T12:55:50;16.37;;;9.80;;
9076;SDS011;4574;51.072;17.174;2023-03-01T12:58:22;16.50;;;9.33;;
9076;SDS011;4574;51.072;17.174;2023-03-01T13:01:16;14.50;;;9.53;;
9076;SDS011;4574;51.072;17.174;2023-03-01T13:06:47;15.40;;;10.30;;
9076;SDS011;4574;51.072;17.174;2023-03-01T13:09:29;12.93;;;8.20;;
9076;SDS011;4574;51.072;17.174;2023-03-01T13:15:18;12.17;;;7.90;;
9076;SDS011;4574;51.072;17.174;2023-03-01T13:17:54;49.67;;;18.37;;
9076;SDS011;4574;51.072;17.174;2023-03-01T13:20:27;11.50;;;8.20;;
9076;SDS011;4574;51.072;17.174;2023-03-01T13:23:01;20.83;;;10.40;;
9076;SDS011;4574;51.072;17.174;2023-03-01T13:25:32;12.63;;;8.63;;
9076;SDS011;4574;51.072;17.174;2023-03-01T13:34:40;13.30;;;8.83;;
9076;SDS011;4574;51.072;17.174;2023-03-01T13:37:18;38.37;;;17.67;;
9076;SDS011;4574;51.072;17.174;2023-03-01T13:39:48;25.77;;;13.33;;
9076;SDS011;4574;51.072;17.174;2023-03-01T13:42:34;15.70;;;10.23;;
9076;SDS011;4574;51.072;17.174;2023-03-01T13:48:08;33.70;;;16.60;;
9076;SDS011;4574;51.072;17.174;2023-03-01T13:50:43;12.47;;;9.03;;
9076;SDS011;4574;51.072;17.174;2023-03-01T13:53:18;10.87;;;8.00;;
9076;SDS011;4574;51.072;17.174;2023-03-01T13:55:50;15.90;;;9.87;;
9076;SDS011;4574;51.072;17.174;2023-03-01T13:58:23;18.33;;;9.90;;
9076;SDS011;4574;51.072;17.174;2023-03-01T14:00:57;15.33;;;9.70;;
9076;SDS011;4574;51.072;17.174;2023-03-01T14:03:28;149.57;;;77.23;;
9076;SDS011;4574;51.072;17.174;2023-03-01T14:06:00;48.50;;;22.57;;
9076;SDS011;4574;51.072;17.174;2023-03-01T14:08:43;20.80;;;13.77;;
9076;SDS011;4574;51.072;17.174;2023-03-01T14:11:20;26.37;;;15.73;;
9076;SDS011;4574;51.072;17.174;2023-03-01T14:14:18;11.93;;;8.57;;
9076;SDS011;4574;51.072;17.174;2023-03-01T14:16:59;28.00;;;13.87;;
9076;SDS011;4574;51.072;17.174;2023-03-01T14:19:40;29.83;;;14.50;;
9076;SDS011;4574;51.072;17.174;2023-03-01T14:22:14;15.03;;;10.63;;
9076;SDS011;4574;51.072;17.174;2023-03-01T14:24:50;12.20;;;8.67;;
9076;SDS011;4574;51.072;17.174;2023-03-01T14:27:20;13.17;;;8.93;;
9076;SDS011;4574;51.072;17.174;2023-03-01T14:29:55;12.37;;;8.70;;
9076;SDS011;4574;51.072;17.174;2023-03-01T14:32:25;17.23;;;10.33;;
9076;SDS011;4574;51.072;17.174;2023-03-01T14:34:56;18.50;;;9.80;;
9076;SDS011;4574;51.072;17.174;2023-03-01T14:37:27;16.93;;;11.20;;
9076;SDS011;4574;51.072;17.174;2023-03-01T14:40:00;18.10;;;10.40;;
9076;SDS011;4574;51.072;17.174;2023-03-01T14:42:33;15.40;;;10.13;;
9076;SDS011;4574;51.072;17.174;2023-03-01T14:45:04;14.17;;;9.93;;
9076;SDS011;4574;51.072;17.174;2023-03-01T14:47:35;25.27;;;14.27;;
9076;SDS011;4574;51.072;17.174;2023-03-01T14:50:13;15.37;;;9.47;;
9076;SDS011;4574;51.072;17.174;2023-03-01T14:52:48;13.13;;;9.17;;
9076;SDS011;4574;51.072;17.174;2023-03-01T14:55:26;11.90;;;8.87;;
9076;SDS011;4574;51.072;17.174;2023-03-01T14:57:59;13.00;;;8.60;;
9076;SDS011;4574;51.072;17.174;2023-03-01T15:00:29;13.43;;;9.00;;
9076;SDS011;4574;51.072;17.174;2023-03-01T15:03:00;43.23;;;17.47;;
9076;SDS011;4574;51.072;17.174;2023-03-01T15:05:40;16.20;;;11.20;;
9076;SDS011;4574;51.072;17.174;2023-03-01T15:08:12;27.27;;;14.73;;
9076;SDS011;4574;51.072;17.174;2023-03-01T15:10:58;18.37;;;10.47;;
9076;SDS011;4574;51.072;17.174;2023-03-01T15:13:30;17.60;;;9.93;;
9076;SDS011;4574;51.072;17.174;2023-03-01T15:16:01;19.67;;;9.60;;
9076;SDS011;4574;51.072;17.174;2023-03-01T15:18:34;14.03;;;8.20;;
9076;SDS011;4574;51.072;17.174;2023-03-01T15:21:07;14.53;;;7.67;;
9076;SDS011;4574;51.072;17.174;2023-03-01T15:23:37;25.53;;;12.13;;
9076;SDS011;4574;51.072;17.174;2023-03-01T15:26:19;15.33;;;9.97;;
9076;SDS011;4574;51.072;17.174;2023-03-01T15:28:56;20.27;;;11.93;;